sensor_id;sensor_type;location;lat;lon;timestamp;P1;durP1;ratioP1;P2;durP2;ratioP2
10479;SDS011;12789;42.610;23.040;2022-11-12T00:01:06;27.37;;;18.17;;
10479;SDS011;12789;42.610;23.040;2022-11-12T00:03:33;29.73;;;18.40;;
10479;SDS011;12789;42.610;23.040;2022-11-12T00:05:59;31.10;;;18.80;;
10479;SDS011;12789;42.610;23.040;2022-11-12T00:08:26;25.27;;;17.27;;
10479;SDS011;12789;42.610;23.040;2022-11-12T00:10:53;24.97;;;16.73;;
10479;SDS011;12789;42.610;23.040;2022-11-12T00:13:20;28.33;;;17.73;;
10479;SDS011;12789;42.610;23.040;2022-11-12T00:15:48;28.83;;;18.10;;
10479;SDS011;12789;42.610;23.040;2022-11-12T00:18:15;25.77;;;16.73;;
10479;SDS011;12789;42.610;23.040;2022-11-12T00:20:42;25.97;;;17.53;;
10479;SDS011;12789;42.610;23.040;2022-11-12T00:23:09;24.73;;;17.43;;
10479;SDS011;12789;42.610;23.040;2022-11-12T00:25:36;24.43;;;17.00;;
10479;SDS011;12789;42.610;23.040;2022-11-12T00:28:04;28.90;;;18.47;;
10479;SDS011;12789;42.610;23.040;2022-11-12T00:30:31;27.03;;;16.87;;
10479;SDS011;12789;42.610;23.040;2022-11-12T00:33:01;24.90;;;17.37;;
10479;SDS011;12789;42.610;23.040;2022-11-12T00:35:29;24.33;;;17.13;;
10479;SDS011;12789;42.610;23.040;2022-11-12T00:37:56;24.40;;;17.63;;
10479;SDS011;12789;42.610;23.040;2022-11-12T00:40:23;23.23;;;14.90;;
10479;SDS011;12789;42.610;23.040;2022-11-12T00:42:50;27.57;;;17.00;;
10479;SDS011;12789;42.610;23.040;2022-11-12T00:45:18;25.20;;;16.53;;
10479;SDS011;12789;42.610;23.040;2022-11-12T00:47:44;23.30;;;15.77;;
10479;SDS011;12789;42.610;23.040;2022-11-12T00:50:13;25.77;;;17.33;;
10479;SDS011;12789;42.610;23.040;2022-11-12T00:52:41;23.83;;;16.13;;
10479;SDS011;12789;42.610;23.040;2022-11-12T00:55:07;26.20;;;16.53;;
10479;SDS011;12789;42.610;23.040;2022-11-12T00:57:34;26.40;;;17.33;;
10479;SDS011;12789;42.610;23.040;2022-11-12T01:00:02;24.17;;;16.57;;
10479;SDS011;12789;42.610;23.040;2022-11-12T01:02:29;27.90;;;17.90;;
10479;SDS011;12789;42.610;23.040;2022-11-12T01:04:56;26.03;;;17.67;;
10479;SDS011;12789;42.610;23.040;2022-11-12T01:07:24;25.03;;;16.97;;
10479;SDS011;12789;42.610;23.040;2022-11-12T01:09:51;26.17;;;17.17;;
10479;SDS011;12789;42.610;23.040;2022-11-12T01:12:17;25.20;;;16.70;;
10479;SDS011;12789;42.610;23.040;2022-11-12T01:14:44;27.63;;;17.60;;
10479;SDS011;12789;42.610;23.040;2022-11-12T01:17:12;30.43;;;19.17;;
10479;SDS011;12789;42.610;23.040;2022-11-12T01:19:38;23.13;;;16.67;;
10479;SDS011;12789;42.610;23.040;2022-11-12T01:22:05;25.67;;;16.70;;
10479;SDS011;12789;42.610;23.040;2022-11-12T01:24:34;27.00;;;16.83;;
10479;SDS011;12789;42.610;23.040;2022-11-12T01:27:01;26.13;;;16.97;;
10479;SDS011;12789;42.610;23.040;2022-11-12T01:29:27;25.50;;;15.73;;
10479;SDS011;12789;42.610;23.040;2022-11-12T01:31:54;27.33;;;17.00;;
10479;SDS011;12789;42.610;23.040;2022-11-12T01:34:21;23.37;;;15.13;;
10479;SDS011;12789;42.610;23.040;2022-11-12T01:36:48;25.60;;;15.60;;
10479;SDS011;12789;42.610;23.040;2022-11-12T01:39:15;23.30;;;15.93;;
10479;SDS011;12789;42.610;23.040;2022-11-12T01:41:44;22.33;;;14.80;;
10479;SDS011;12789;42.610;23.040;2022-11-12T01:44:15;24.60;;;15.40;;
10479;SDS011;12789;42.610;23.040;2022-11-12T01:49:25;20.17;;;13.63;;
10479;SDS011;12789;42.610;23.040;2022-11-12T01:51:53;22.77;;;14.03;;
10479;SDS011;12789;42.610;23.040;2022-11-12T01:54:22;21.90;;;13.50;;
10479;SDS011;12789;42.610;23.040;2022-11-12T01:56:51;20.33;;;14.03;;
10479;SDS011;12789;42.610;23.040;2022-11-12T01:59:20;20.33;;;13.40;;
10479;SDS011;12789;42.610;23.040;2022-11-12T02:01:48;20.57;;;14.50;;
10479;SDS011;12789;42.610;23.040;2022-11-12T02:04:15;19.83;;;13.93;;
10479;SDS011;12789;42.610;23.040;2022-11-12T02:06:42;21.90;;;14.57;;
10479;SDS011;12789;42.610;23.040;2022-11-12T02:09:10;20.97;;;13.53;;
10479;SDS011;12789;42.610;23.040;2022-11-12T02:11:37;20.63;;;14.33;;
10479;SDS011;12789;42.610;23.040;2022-11-12T02:14:05;20.23;;;14.13;;
10479;SDS011;12789;42.610;23.040;2022-11-12T02:16:32;21.97;;;14.43;;
10479;SDS011;12789;42.610;23.040;2022-11-12T02:18:59;20.60;;;13.97;;
10479;SDS011;12789;42.610;23.040;2022-11-12T02:21:28;20.60;;;12.67;;
10479;SDS011;12789;42.610;23.040;2022-11-12T02:23:59;20.83;;;13.60;;
10479;SDS011;12789;42.610;23.040;2022-11-12T02:26:26;20.00;;;14.10;;
10479;SDS011;12789;42.610;23.040;2022-11-12T02:28:53;19.73;;;13.30;;
10479;SDS011;12789;42.610;23.040;2022-11-12T02:31:20;25.77;;;14.23;;
10479;SDS011;12789;42.610;23.040;2022-11-12T02:33:47;19.67;;;12.73;;
10479;SDS011;12789;42.610;23.040;2022-11-12T02:36:13;19.77;;;13.77;;
10479;SDS011;12789;42.610;23.040;2022-11-12T02:38:42;22.37;;;14.07;;
10479;SDS011;12789;42.610;23.040;2022-11-12T02:41:09;16.47;;;11.50;;
10479;SDS011;12789;42.610;23.040;2022-11-12T02:43:35;17.00;;;11.33;;
10479;SDS011;12789;42.610;23.040;2022-11-12T02:46:02;18.20;;;11.43;;
10479;SDS011;12789;42.610;23.040;2022-11-12T02:48:29;15.83;;;10.90;;
10479;SDS011;12789;42.610;23.040;2022-11-12T02:50:55;12.80;;;9.90;;
10479;SDS011;12789;42.610;23.040;2022-11-12T02:53:22;12.27;;;9.30;;
10479;SDS011;12789;42.610;23.040;2022-11-12T02:55:51;11.70;;;8.73;;
10479;SDS011;12789;42.610;23.040;2022-11-12T02:58:18;10.93;;;8.50;;
10479;SDS011;12789;42.610;23.040;2022-11-12T03:00:47;9.00;;;6.87;;
10479;SDS011;12789;42.610;23.040;2022-11-12T03:03:13;8.70;;;6.97;;
10479;SDS011;12789;42.610;23.040;2022-11-12T03:05:40;7.27;;;6.50;;
10479;SDS011;12789;42.610;23.040;2022-11-12T03:08:07;9.37;;;6.77;;
10479;SDS011;12789;42.610;23.040;2022-11-12T03:10:35;7.33;;;6.07;;
10479;SDS011;12789;42.610;23.040;2022-11-12T03:13:04;8.13;;;6.13;;
10479;SDS011;12789;42.610;23.040;2022-11-12T03:15:31;9.00;;;6.17;;
10479;SDS011;12789;42.610;23.040;2022-11-12T03:17:58;8.33;;;5.50;;
10479;SDS011;12789;42.610;23.040;2022-11-12T03:20:25;6.07;;;5.00;;
10479;SDS011;12789;42.610;23.040;2022-11-12T03:22:56;6.73;;;5.57;;
10479;SDS011;12789;42.610;23.040;2022-11-12T03:25:23;5.53;;;5.03;;
10479;SDS011;12789;42.610;23.040;2022-11-12T03:27:55;7.53;;;5.30;;
10479;SDS011;12789;42.610;23.040;2022-11-12T03:30:24;7.50;;;5.80;;
10479;SDS011;12789;42.610;23.040;2022-11-12T03:32:51;7.63;;;5.43;;
10479;SDS011;12789;42.610;23.040;2022-11-12T03:35:18;6.43;;;5.53;;
10479;SDS011;12789;42.610;23.040;2022-11-12T03:37:45;6.03;;;5.37;;
10479;SDS011;12789;42.610;23.040;2022-11-12T03:40:11;6.80;;;5.70;;
10479;SDS011;12789;42.610;23.040;2022-11-12T03:42:43;6.93;;;5.50;;
10479;SDS011;12789;42.610;23.040;2022-11-12T03:45:09;6.83;;;5.07;;
10479;SDS011;12789;42.610;23.040;2022-11-12T03:47:40;6.47;;;5.83;;
10479;SDS011;12789;42.610;23.040;2022-11-12T03:50:07;7.47;;;5.70;;
10479;SDS011;12789;42.610;23.040;2022-11-12T03:52:34;6.60;;;5.10;;
10479;SDS011;12789;42.610;23.040;2022-11-12T03:55:01;7.60;;;5.67;;
10479;SDS011;12789;42.610;23.040;2022-11-12T03:57:28;8.33;;;5.97;;
10479;SDS011;12789;42.610;23.040;2022-11-12T03:59:54;6.83;;;6.13;;
10479;SDS011;12789;42.610;23.040;2022-11-12T04:02:21;7.00;;;5.57;;
10479;SDS011;12789;42.610;23.040;2022-11-12T04:04:52;5.93;;;5.30;;
10479;SDS011;12789;42.610;23.040;2022-11-12T04:07:36;7.07;;;5.30;;
10479;SDS011;12789;42.610;23.040;2022-11-12T04:10:20;6.17;;;5.57;;
10479;SDS011;12789;42.610;23.040;2022-11-12T04:12:47;10.73;;;7.53;;
10479;SDS011;12789;42.610;23.040;2022-11-12T04:15:31;21.13;;;14.50;;
10479;SDS011;12789;42.610;23.040;2022-11-12T04:17:58;15.10;;;10.23;;
10479;SDS011;12789;42.610;23.040;2022-11-12T04:20:43;14.50;;;9.87;;
10479;SDS011;12789;42.610;23.040;2022-11-12T04:23:26;12.03;;;8.60;;
10479;SDS011;12789;42.610;23.040;2022-11-12T04:25:53;10.97;;;8.33;;
10479;SDS011;12789;42.610;23.040;2022-11-12T04:28:37;10.17;;;8.03;;
10479;SDS011;12789;42.610;23.040;2022-11-12T04:31:04;10.90;;;7.83;;
10479;SDS011;12789;42.610;23.040;2022-11-12T04:33:29;9.43;;;7.93;;
10479;SDS011;12789;42.610;23.040;2022-11-12T04:35:58;11.50;;;8.00;;
10479;SDS011;12789;42.610;23.040;2022-11-12T04:38:24;11.00;;;7.57;;
10479;SDS011;12789;42.610;23.040;2022-11-12T04:40:51;11.87;;;7.83;;
10479;SDS011;12789;42.610;23.040;2022-11-12T04:43:35;10.47;;;8.27;;
10479;SDS011;12789;42.610;23.040;2022-11-12T04:46:20;12.20;;;8.33;;
10479;SDS011;12789;42.610;23.040;2022-11-12T04:48:47;11.00;;;8.00;;
10479;SDS011;12789;42.610;23.040;2022-11-12T04:51:15;11.67;;;9.40;;
10479;SDS011;12789;42.610;23.040;2022-11-12T04:53:59;12.90;;;8.57;;
10479;SDS011;12789;42.610;23.040;2022-11-12T04:56:26;13.27;;;8.40;;
10479;SDS011;12789;42.610;23.040;2022-11-12T04:58:53;12.17;;;8.77;;
10479;SDS011;12789;42.610;23.040;2022-11-12T05:01:20;8.90;;;7.50;;
10479;SDS011;12789;42.610;23.040;2022-11-12T05:03:47;11.27;;;7.70;;
10479;SDS011;12789;42.610;23.040;2022-11-12T05:06:15;15.77;;;7.90;;
10479;SDS011;12789;42.610;23.040;2022-11-12T05:08:56;12.20;;;7.43;;
10479;SDS011;12789;42.610;23.040;2022-11-12T05:11:22;10.53;;;7.47;;
10479;SDS011;12789;42.610;23.040;2022-11-12T05:13:49;11.07;;;7.60;;
10479;SDS011;12789;42.610;23.040;2022-11-12T05:16:16;17.30;;;10.67;;
10479;SDS011;12789;42.610;23.040;2022-11-12T05:18:43;16.37;;;10.63;;
10479;SDS011;12789;42.610;23.040;2022-11-12T05:21:09;23.60;;;15.97;;
10479;SDS011;12789;42.610;23.040;2022-11-12T05:23:55;12.70;;;9.90;;
10479;SDS011;12789;42.610;23.040;2022-11-12T05:26:22;42.20;;;26.10;;
10479;SDS011;12789;42.610;23.040;2022-11-12T05:28:49;25.07;;;17.07;;
10479;SDS011;12789;42.610;23.040;2022-11-12T05:31:16;32.13;;;18.10;;
10479;SDS011;12789;42.610;23.040;2022-11-12T05:33:42;61.90;;;38.30;;
10479;SDS011;12789;42.610;23.040;2022-11-12T05:36:09;133.70;;;84.27;;
10479;SDS011;12789;42.610;23.040;2022-11-12T05:38:36;27.57;;;17.83;;
10479;SDS011;12789;42.610;23.040;2022-11-12T05:41:05;19.47;;;12.43;;
10479;SDS011;12789;42.610;23.040;2022-11-12T05:43:32;20.87;;;14.60;;
10479;SDS011;12789;42.610;23.040;2022-11-12T05:45:59;19.97;;;13.97;;
10479;SDS011;12789;42.610;23.040;2022-11-12T05:48:25;18.43;;;13.27;;
10479;SDS011;12789;42.610;23.040;2022-11-12T05:50:52;24.57;;;13.50;;
10479;SDS011;12789;42.610;23.040;2022-11-12T05:53:19;25.17;;;13.13;;
10479;SDS011;12789;42.610;23.040;2022-11-12T05:55:46;18.53;;;12.90;;
10479;SDS011;12789;42.610;23.040;2022-11-12T05:58:15;16.63;;;10.93;;
10479;SDS011;12789;42.610;23.040;2022-11-12T06:00:42;13.00;;;9.00;;
10479;SDS011;12789;42.610;23.040;2022-11-12T06:03:09;13.33;;;8.97;;
10479;SDS011;12789;42.610;23.040;2022-11-12T06:05:37;15.07;;;9.60;;
10479;SDS011;12789;42.610;23.040;2022-11-12T06:08:06;14.80;;;9.70;;
10479;SDS011;12789;42.610;23.040;2022-11-12T06:10:33;16.00;;;11.03;;
10479;SDS011;12789;42.610;23.040;2022-11-12T06:13:00;13.50;;;9.00;;
10479;SDS011;12789;42.610;23.040;2022-11-12T06:15:29;12.73;;;9.53;;
10479;SDS011;12789;42.610;23.040;2022-11-12T06:17:56;13.40;;;8.37;;
10479;SDS011;12789;42.610;23.040;2022-11-12T06:20:23;15.37;;;8.93;;
10479;SDS011;12789;42.610;23.040;2022-11-12T06:22:49;18.23;;;8.83;;
10479;SDS011;12789;42.610;23.040;2022-11-12T06:25:16;10.10;;;7.63;;
10479;SDS011;12789;42.610;23.040;2022-11-12T06:27:43;10.17;;;7.60;;
10479;SDS011;12789;42.610;23.040;2022-11-12T06:30:10;10.57;;;7.87;;
10479;SDS011;12789;42.610;23.040;2022-11-12T06:32:40;10.83;;;7.83;;
10479;SDS011;12789;42.610;23.040;2022-11-12T06:35:07;11.27;;;7.73;;
10479;SDS011;12789;42.610;23.040;2022-11-12T06:37:34;10.77;;;8.20;;
10479;SDS011;12789;42.610;23.040;2022-11-12T06:40:01;10.80;;;8.17;;
10479;SDS011;12789;42.610;23.040;2022-11-12T06:42:28;11.80;;;7.83;;
10479;SDS011;12789;42.610;23.040;2022-11-12T06:44:54;12.20;;;8.73;;
10479;SDS011;12789;42.610;23.040;2022-11-12T06:47:21;11.13;;;8.37;;
10479;SDS011;12789;42.610;23.040;2022-11-12T06:49:49;10.10;;;7.80;;
10479;SDS011;12789;42.610;23.040;2022-11-12T06:52:16;8.43;;;6.73;;
10479;SDS011;12789;42.610;23.040;2022-11-12T06:54:43;9.80;;;6.80;;
10479;SDS011;12789;42.610;23.040;2022-11-12T06:57:13;9.07;;;6.77;;
10479;SDS011;12789;42.610;23.040;2022-11-12T06:59:40;12.07;;;6.93;;
10479;SDS011;12789;42.610;23.040;2022-11-12T07:02:09;8.33;;;6.33;;
10479;SDS011;12789;42.610;23.040;2022-11-12T07:04:38;8.03;;;6.50;;
10479;SDS011;12789;42.610;23.040;2022-11-12T07:07:09;7.93;;;6.10;;
10479;SDS011;12789;42.610;23.040;2022-11-12T07:09:36;6.40;;;5.70;;
10479;SDS011;12789;42.610;23.040;2022-11-12T07:12:03;7.57;;;6.10;;
10479;SDS011;12789;42.610;23.040;2022-11-12T07:14:30;8.53;;;6.43;;
10479;SDS011;12789;42.610;23.040;2022-11-12T07:16:57;10.67;;;6.33;;
10479;SDS011;12789;42.610;23.040;2022-11-12T07:19:24;15.50;;;7.67;;
10479;SDS011;12789;42.610;23.040;2022-11-12T07:21:50;10.70;;;7.40;;
10479;SDS011;12789;42.610;23.040;2022-11-12T07:24:19;18.70;;;9.30;;
10479;SDS011;12789;42.610;23.040;2022-11-12T07:26:46;15.20;;;8.53;;
10479;SDS011;12789;42.610;23.040;2022-11-12T07:29:13;15.47;;;8.87;;
10479;SDS011;12789;42.610;23.040;2022-11-12T07:31:41;16.57;;;7.90;;
10479;SDS011;12789;42.610;23.040;2022-11-12T07:34:09;9.87;;;7.13;;
10479;SDS011;12789;42.610;23.040;2022-11-12T07:36:36;16.37;;;9.03;;
10479;SDS011;12789;42.610;23.040;2022-11-12T07:39:02;13.73;;;9.23;;
10479;SDS011;12789;42.610;23.040;2022-11-12T07:41:31;11.87;;;7.40;;
10479;SDS011;12789;42.610;23.040;2022-11-12T07:43:58;9.23;;;7.23;;
10479;SDS011;12789;42.610;23.040;2022-11-12T07:46:26;8.17;;;6.47;;
10479;SDS011;12789;42.610;23.040;2022-11-12T07:48:54;11.57;;;7.57;;
10479;SDS011;12789;42.610;23.040;2022-11-12T07:51:22;10.80;;;7.37;;
10479;SDS011;12789;42.610;23.040;2022-11-12T07:53:51;9.33;;;6.70;;
10479;SDS011;12789;42.610;23.040;2022-11-12T07:56:19;9.13;;;7.30;;
10479;SDS011;12789;42.610;23.040;2022-11-12T07:58:51;8.57;;;6.50;;
10479;SDS011;12789;42.610;23.040;2022-11-12T08:01:21;15.70;;;6.63;;
10479;SDS011;12789;42.610;23.040;2022-11-12T08:03:49;10.83;;;6.17;;
10479;SDS011;12789;42.610;23.040;2022-11-12T08:06:18;8.20;;;6.60;;
10479;SDS011;12789;42.610;23.040;2022-11-12T08:08:45;7.83;;;6.40;;
10479;SDS011;12789;42.610;23.040;2022-11-12T08:11:12;7.90;;;6.20;;
10479;SDS011;12789;42.610;23.040;2022-11-12T08:13:39;6.43;;;5.37;;
10479;SDS011;12789;42.610;23.040;2022-11-12T08:16:07;9.70;;;6.50;;
10479;SDS011;12789;42.610;23.040;2022-11-12T08:18:37;7.13;;;6.03;;
10479;SDS011;12789;42.610;23.040;2022-11-12T08:21:04;6.80;;;6.03;;
10479;SDS011;12789;42.610;23.040;2022-11-12T08:23:32;11.30;;;6.30;;
10479;SDS011;12789;42.610;23.040;2022-11-12T08:25:59;5.70;;;5.20;;
10479;SDS011;12789;42.610;23.040;2022-11-12T08:28:27;7.33;;;5.37;;
10479;SDS011;12789;42.610;23.040;2022-11-12T08:30:54;6.23;;;5.30;;
10479;SDS011;12789;42.610;23.040;2022-11-12T08:33:24;9.10;;;5.70;;
10479;SDS011;12789;42.610;23.040;2022-11-12T08:35:52;11.77;;;5.23;;
10479;SDS011;12789;42.610;23.040;2022-11-12T08:38:19;9.13;;;5.33;;
10479;SDS011;12789;42.610;23.040;2022-11-12T08:40:47;5.60;;;4.87;;
10479;SDS011;12789;42.610;23.040;2022-11-12T08:43:13;7.27;;;5.23;;
10479;SDS011;12789;42.610;23.040;2022-11-12T08:45:41;9.13;;;5.53;;
10479;SDS011;12789;42.610;23.040;2022-11-12T08:48:09;10.67;;;5.90;;
10479;SDS011;12789;42.610;23.040;2022-11-12T08:50:39;11.37;;;6.13;;
10479;SDS011;12789;42.610;23.040;2022-11-12T08:53:07;6.60;;;5.53;;
10479;SDS011;12789;42.610;23.040;2022-11-12T08:55:34;14.47;;;7.00;;
10479;SDS011;12789;42.610;23.040;2022-11-12T08:58:00;11.53;;;5.73;;
10479;SDS011;12789;42.610;23.040;2022-11-12T09:00:28;10.07;;;6.27;;
10479;SDS011;12789;42.610;23.040;2022-11-12T09:02:55;11.13;;;7.17;;
10479;SDS011;12789;42.610;23.040;2022-11-12T09:05:24;9.20;;;5.70;;
10479;SDS011;12789;42.610;23.040;2022-11-12T09:07:57;8.00;;;5.83;;
10479;SDS011;12789;42.610;23.040;2022-11-12T09:10:24;11.57;;;5.80;;
10479;SDS011;12789;42.610;23.040;2022-11-12T09:12:51;9.77;;;6.43;;
10479;SDS011;12789;42.610;23.040;2022-11-12T09:15:20;8.67;;;6.13;;
10479;SDS011;12789;42.610;23.040;2022-11-12T09:17:47;8.87;;;6.10;;
10479;SDS011;12789;42.610;23.040;2022-11-12T09:20:14;9.57;;;6.53;;
10479;SDS011;12789;42.610;23.040;2022-11-12T09:22:41;8.47;;;6.20;;
10479;SDS011;12789;42.610;23.040;2022-11-12T09:25:10;9.50;;;5.73;;
10479;SDS011;12789;42.610;23.040;2022-11-12T09:27:37;9.00;;;5.73;;
10479;SDS011;12789;42.610;23.040;2022-11-12T09:30:05;9.83;;;6.10;;
10479;SDS011;12789;42.610;23.040;2022-11-12T09:32:32;8.40;;;5.67;;
10479;SDS011;12789;42.610;23.040;2022-11-12T09:34:59;6.70;;;5.50;;
10479;SDS011;12789;42.610;23.040;2022-11-12T09:37:26;8.57;;;5.47;;
10479;SDS011;12789;42.610;23.040;2022-11-12T09:39:53;10.20;;;4.70;;
10479;SDS011;12789;42.610;23.040;2022-11-12T09:42:21;8.03;;;5.20;;
10479;SDS011;12789;42.610;23.040;2022-11-12T09:44:53;4.93;;;4.43;;
10479;SDS011;12789;42.610;23.040;2022-11-12T09:47:22;10.27;;;5.13;;
10479;SDS011;12789;42.610;23.040;2022-11-12T09:49:54;6.13;;;4.80;;
10479;SDS011;12789;42.610;23.040;2022-11-12T09:52:24;10.57;;;4.80;;
10479;SDS011;12789;42.610;23.040;2022-11-12T09:54:56;6.87;;;5.37;;
10479;SDS011;12789;42.610;23.040;2022-11-12T09:57:27;10.07;;;5.93;;
10479;SDS011;12789;42.610;23.040;2022-11-12T09:59:54;10.20;;;6.07;;
10479;SDS011;12789;42.610;23.040;2022-11-12T10:02:24;7.60;;;6.23;;
10479;SDS011;12789;42.610;23.040;2022-11-12T10:04:59;10.07;;;7.30;;
10479;SDS011;12789;42.610;23.040;2022-11-12T10:07:33;6.13;;;5.30;;
10479;SDS011;12789;42.610;23.040;2022-11-12T10:10:14;10.70;;;6.10;;
10479;SDS011;12789;42.610;23.040;2022-11-12T10:12:46;6.53;;;5.50;;
10479;SDS011;12789;42.610;23.040;2022-11-12T10:15:19;5.20;;;4.20;;
10479;SDS011;12789;42.610;23.040;2022-11-12T10:18:07;6.43;;;4.70;;
10479;SDS011;12789;42.610;23.040;2022-11-12T10:20:36;8.37;;;5.20;;
10479;SDS011;12789;42.610;23.040;2022-11-12T10:23:10;7.60;;;4.00;;
10479;SDS011;12789;42.610;23.040;2022-11-12T10:25:40;8.73;;;3.97;;
10479;SDS011;12789;42.610;23.040;2022-11-12T10:28:14;6.07;;;4.07;;
10479;SDS011;12789;42.610;23.040;2022-11-12T10:30:44;5.07;;;4.03;;
10479;SDS011;12789;42.610;23.040;2022-11-12T10:33:12;10.17;;;4.10;;
10479;SDS011;12789;42.610;23.040;2022-11-12T10:35:39;6.83;;;4.10;;
10479;SDS011;12789;42.610;23.040;2022-11-12T10:38:10;5.27;;;4.57;;
10479;SDS011;12789;42.610;23.040;2022-11-12T10:40:38;6.37;;;3.70;;
10479;SDS011;12789;42.610;23.040;2022-11-12T10:43:05;4.70;;;4.13;;
10479;SDS011;12789;42.610;23.040;2022-11-12T10:45:47;5.20;;;4.70;;
10479;SDS011;12789;42.610;23.040;2022-11-12T10:48:20;33.83;;;6.10;;
10479;SDS011;12789;42.610;23.040;2022-11-12T10:50:48;6.53;;;4.67;;
10479;SDS011;12789;42.610;23.040;2022-11-12T10:53:27;7.97;;;4.20;;
10479;SDS011;12789;42.610;23.040;2022-11-12T10:55:56;11.57;;;4.50;;
10479;SDS011;12789;42.610;23.040;2022-11-12T10:58:23;24.83;;;5.93;;
10479;SDS011;12789;42.610;23.040;2022-11-12T11:00:53;13.40;;;5.53;;
10479;SDS011;12789;42.610;23.040;2022-11-12T11:03:20;4.37;;;3.03;;
10479;SDS011;12789;42.610;23.040;2022-11-12T11:05:49;9.03;;;4.30;;
10479;SDS011;12789;42.610;23.040;2022-11-12T11:08:18;23.70;;;3.87;;
10479;SDS011;12789;42.610;23.040;2022-11-12T11:11:07;6.07;;;3.73;;
10479;SDS011;12789;42.610;23.040;2022-11-12T11:13:35;5.77;;;4.20;;
10479;SDS011;12789;42.610;23.040;2022-11-12T11:16:05;5.33;;;4.40;;
10479;SDS011;12789;42.610;23.040;2022-11-12T11:18:32;4.97;;;4.32;;
10479;SDS011;12789;42.610;23.040;2022-11-12T11:21:06;8.50;;;4.63;;
10479;SDS011;12789;42.610;23.040;2022-11-12T11:23:35;7.27;;;5.43;;
10479;SDS011;12789;42.610;23.040;2022-11-12T11:26:13;9.80;;;5.37;;
10479;SDS011;12789;42.610;23.040;2022-11-12T11:28:43;10.77;;;4.80;;
10479;SDS011;12789;42.610;23.040;2022-11-12T11:31:17;8.97;;;4.80;;
10479;SDS011;12789;42.610;23.040;2022-11-12T11:33:45;11.13;;;8.27;;
10479;SDS011;12789;42.610;23.040;2022-11-12T11:36:18;5.95;;;5.03;;
10479;SDS011;12789;42.610;23.040;2022-11-12T11:38:50;11.90;;;7.10;;
10479;SDS011;12789;42.610;23.040;2022-11-12T11:41:23;12.10;;;6.73;;
10479;SDS011;12789;42.610;23.040;2022-11-12T11:43:57;12.57;;;5.93;;
10479;SDS011;12789;42.610;23.040;2022-11-12T11:46:37;5.67;;;4.80;;
10479;SDS011;12789;42.610;23.040;2022-11-12T11:49:12;9.00;;;5.87;;
10479;SDS011;12789;42.610;23.040;2022-11-12T11:51:45;9.83;;;4.67;;
10479;SDS011;12789;42.610;23.040;2022-11-12T11:54:21;8.30;;;5.23;;
10479;SDS011;12789;42.610;23.040;2022-11-12T11:56:53;6.10;;;5.00;;
10479;SDS011;12789;42.610;23.040;2022-11-12T11:59:24;6.50;;;5.27;;
10479;SDS011;12789;42.610;23.040;2022-11-12T12:01:59;8.20;;;4.57;;
10479;SDS011;12789;42.610;23.040;2022-11-12T12:04:39;6.57;;;4.27;;
10479;SDS011;12789;42.610;23.040;2022-11-12T12:07:11;9.57;;;4.37;;
10479;SDS011;12789;42.610;23.040;2022-11-12T12:09:44;7.40;;;4.70;;
10479;SDS011;12789;42.610;23.040;2022-11-12T12:12:18;12.53;;;4.70;;
10479;SDS011;12789;42.610;23.040;2022-11-12T12:14:48;16.87;;;4.60;;
10479;SDS011;12789;42.610;23.040;2022-11-12T12:17:21;6.03;;;4.20;;
10479;SDS011;12789;42.610;23.040;2022-11-12T12:19:55;7.17;;;4.13;;
10479;SDS011;12789;42.610;23.040;2022-11-12T12:22:23;4.93;;;3.80;;
10479;SDS011;12789;42.610;23.040;2022-11-12T12:24:51;5.63;;;4.30;;
10479;SDS011;12789;42.610;23.040;2022-11-12T12:27:21;3.57;;;3.27;;
10479;SDS011;12789;42.610;23.040;2022-11-12T12:29:51;6.33;;;4.40;;
10479;SDS011;12789;42.610;23.040;2022-11-12T12:32:22;3.70;;;3.40;;
10479;SDS011;12789;42.610;23.040;2022-11-12T12:34:55;5.87;;;5.07;;
10479;SDS011;12789;42.610;23.040;2022-11-12T12:37:25;6.13;;;4.50;;
10479;SDS011;12789;42.610;23.040;2022-11-12T12:39:54;4.87;;;3.70;;
10479;SDS011;12789;42.610;23.040;2022-11-12T12:42:25;4.97;;;4.30;;
10479;SDS011;12789;42.610;23.040;2022-11-12T12:44:54;6.30;;;4.00;;
10479;SDS011;12789;42.610;23.040;2022-11-12T12:47:33;5.93;;;4.57;;
10479;SDS011;12789;42.610;23.040;2022-11-12T12:50:02;7.73;;;4.97;;
10479;SDS011;12789;42.610;23.040;2022-11-12T12:52:39;6.78;;;4.13;;
10479;SDS011;12789;42.610;23.040;2022-11-12T12:55:34;4.87;;;4.20;;
10479;SDS011;12789;42.610;23.040;2022-11-12T12:58:01;6.50;;;4.83;;
10479;SDS011;12789;42.610;23.040;2022-11-12T13:00:30;5.53;;;4.73;;
10479;SDS011;12789;42.610;23.040;2022-11-12T13:02:59;8.83;;;6.27;;
10479;SDS011;12789;42.610;23.040;2022-11-12T13:05:29;11.13;;;4.80;;
10479;SDS011;12789;42.610;23.040;2022-11-12T13:07:58;4.90;;;4.40;;
10479;SDS011;12789;42.610;23.040;2022-11-12T13:10:33;5.20;;;4.60;;
10479;SDS011;12789;42.610;23.040;2022-11-12T13:13:00;11.50;;;5.50;;
10479;SDS011;12789;42.610;23.040;2022-11-12T13:15:39;19.47;;;10.27;;
10479;SDS011;12789;42.610;23.040;2022-11-12T13:18:08;14.00;;;5.23;;
10479;SDS011;12789;42.610;23.040;2022-11-12T13:20:36;7.10;;;5.33;;
10479;SDS011;12789;42.610;23.040;2022-11-12T13:25:49;7.87;;;5.60;;
10479;SDS011;12789;42.610;23.040;2022-11-12T13:28:16;5.77;;;4.97;;
10479;SDS011;12789;42.610;23.040;2022-11-12T13:30:59;18.07;;;12.90;;
10479;SDS011;12789;42.610;23.040;2022-11-12T13:33:29;9.10;;;5.43;;
10479;SDS011;12789;42.610;23.040;2022-11-12T13:36:16;8.47;;;5.93;;
10479;SDS011;12789;42.610;23.040;2022-11-12T13:38:48;8.93;;;6.50;;
10479;SDS011;12789;42.610;23.040;2022-11-12T13:41:16;16.47;;;7.50;;
10479;SDS011;12789;42.610;23.040;2022-11-12T13:44:06;15.70;;;9.30;;
10479;SDS011;12789;42.610;23.040;2022-11-12T13:46:34;8.63;;;6.47;;
10479;SDS011;12789;42.610;23.040;2022-11-12T13:49:02;8.57;;;4.90;;
10479;SDS011;12789;42.610;23.040;2022-11-12T13:51:37;8.50;;;5.33;;
10479;SDS011;12789;42.610;23.040;2022-11-12T13:54:24;6.70;;;5.33;;
10479;SDS011;12789;42.610;23.040;2022-11-12T13:56:51;5.80;;;5.17;;
10479;SDS011;12789;42.610;23.040;2022-11-12T13:59:19;13.80;;;7.63;;
10479;SDS011;12789;42.610;23.040;2022-11-12T14:01:46;16.17;;;8.30;;
10479;SDS011;12789;42.610;23.040;2022-11-12T14:04:17;13.03;;;8.47;;
10479;SDS011;12789;42.610;23.040;2022-11-12T14:06:44;13.40;;;9.30;;
10479;SDS011;12789;42.610;23.040;2022-11-12T14:09:21;9.63;;;7.73;;
10479;SDS011;12789;42.610;23.040;2022-11-12T14:11:54;12.63;;;8.17;;
10479;SDS011;12789;42.610;23.040;2022-11-12T14:14:28;14.13;;;8.67;;
10479;SDS011;12789;42.610;23.040;2022-11-12T14:17:02;13.70;;;8.20;;
10479;SDS011;12789;42.610;23.040;2022-11-12T14:22:34;4.43;;;4.03;;
10479;SDS011;12789;42.610;23.040;2022-11-12T14:25:02;6.27;;;4.83;;
10479;SDS011;12789;42.610;23.040;2022-11-12T14:27:33;3.70;;;3.30;;
10479;SDS011;12789;42.610;23.040;2022-11-12T14:30:04;6.93;;;3.90;;
10479;SDS011;12789;42.610;23.040;2022-11-12T14:32:34;6.43;;;4.80;;
10479;SDS011;12789;42.610;23.040;2022-11-12T14:35:15;7.93;;;5.57;;
10479;SDS011;12789;42.610;23.040;2022-11-12T14:37:44;5.97;;;5.00;;
10479;SDS011;12789;42.610;23.040;2022-11-12T14:40:14;69.77;;;39.17;;
10479;SDS011;12789;42.610;23.040;2022-11-12T14:42:41;38.47;;;26.80;;
10479;SDS011;12789;42.610;23.040;2022-11-12T14:45:13;28.27;;;18.07;;